Time;durP1;ratioP1;P1;durP2;ratioP2;P2;SDS_P1;SDS_P2;PMS_P1;PMS_P2;Temp;Humidity;BMP_temperature;BMP_pressure;BME280_temperature;BME280_humidity;BME280_pressure;Samples;Min_cycle;Max_cycle;Signal;HPM_P1;HPM_P2
2022/09/13 00:02:29;;;;;;;6.60;5.17;;;16.50;99.90;;;;;;6213608;28;20465;-62
2022/09/13 00:05:34;;;;;;;5.93;4.30;;;16.40;99.90;;;;;;6209390;28;20472;-62
2022/09/13 00:08:38;;;;;;;5.23;4.70;;;16.50;99.90;;;;;;6207731;28;20475;-62
2022/09/13 00:11:41;;;;;;;4.73;4.33;;;16.40;99.90;;;;;;6211107;28;20469;-61
2022/09/13 00:14:44;;;;;;;4.83;4.43;;;16.40;99.90;;;;;;6224860;28;20472;-61
2022/09/13 00:17:48;;;;;;;4.77;4.37;;;16.30;99.90;;;;;;6224936;28;20480;-59
2022/09/13 00:20:52;;;;;;;4.93;4.43;;;16.30;99.90;;;;;;6224642;28;20530;-61
2022/09/13 00:23:55;;;;;;;5.23;4.77;;;16.30;99.90;;;;;;6224434;28;20480;-60
2022/09/13 00:26:58;;;;;;;7.07;4.60;;;16.20;99.90;;;;;;6224628;28;20468;-61
2022/09/13 00:30:02;;;;;;;4.80;4.43;;;16.20;99.90;;;;;;6225416;28;20920;-61
2022/09/13 00:33:05;;;;;;;5.43;4.93;;;16.20;99.90;;;;;;6224616;28;20488;-60
2022/09/13 00:36:11;;;;;;;5.50;4.77;;;16.20;99.90;;;;;;6229077;28;20479;-60
2022/09/13 00:39:14;;;;;;;5.87;5.37;;;16.20;99.90;;;;;;6228865;28;20952;-60
2022/09/13 00:42:18;;;;;;;6.10;4.47;;;16.10;99.90;;;;;;6229011;28;20472;-60
2022/09/13 00:45:21;;;;;;;5.17;4.67;;;16.10;99.90;;;;;;6228724;28;20483;-60
2022/09/13 00:48:24;;;;;;;5.10;4.60;;;16.10;99.90;;;;;;6228859;28;20472;-60
2022/09/13 00:51:30;;;;;;;4.70;4.37;;;16.10;99.90;;;;;;6228638;28;20549;-61
2022/09/13 00:54:39;;;;;;;5.77;4.80;;;16.00;99.90;;;;;;6228422;28;20492;-60
2022/09/13 00:57:43;;;;;;;5.67;5.10;;;16.00;99.90;;;;;;6228371;28;20491;-60
2022/09/13 01:00:47;;;;;;;5.60;4.90;;;15.90;99.90;;;;;;6228154;28;20549;-61
2022/09/13 01:03:51;;;;;;;7.80;5.20;;;15.90;99.90;;;;;;6228606;28;20487;-61
2022/09/13 01:07:00;;;;;;;4.73;4.33;;;15.90;99.90;;;;;;6228445;28;20471;-61
2022/09/13 01:10:06;;;;;;;5.07;4.60;;;15.90;99.90;;;;;;6228379;28;20479;-61
2022/09/13 01:13:13;;;;;;;7.30;5.43;;;15.90;99.90;;;;;;6228349;28;20484;-60
2022/09/13 01:16:17;;;;;;;6.67;5.20;;;15.90;99.90;;;;;;6228175;28;20615;-60
2022/09/13 01:19:20;;;;;;;6.40;5.10;;;15.90;99.90;;;;;;6228042;28;20549;-60
2022/09/13 01:23:00;;;;;;;4.17;3.87;;;15.90;99.90;;;;;;6228357;28;20480;-60
2022/09/13 01:26:34;;;;;;;6.00;5.03;;;15.90;99.90;;;;;;6228241;28;20523;-60
2022/09/13 01:30:14;;;;;;;4.60;4.23;;;15.90;99.90;;;;;;6188784;28;20464;-61
2022/09/13 01:33:35;;;;;;;5.90;5.13;;;15.80;99.90;;;;;;6227822;28;20843;-60
2022/09/13 01:36:54;;;;;;;4.43;4.03;;;15.80;99.90;;;;;;6227890;28;20475;-60
2022/09/13 01:40:05;;;;;;;5.00;4.60;;;15.80;99.90;;;;;;6227560;28;20685;-60
2022/09/13 01:43:25;;;;;;;5.53;4.93;;;15.80;99.90;;;;;;6227525;28;20471;-60
2022/09/13 01:46:32;;;;;;;8.87;5.13;;;15.70;99.90;;;;;;6227839;28;20488;-61
2022/09/13 01:49:46;;;;;;;4.33;4.00;;;15.70;99.90;;;;;;6227443;28;20452;-61
2022/09/13 01:52:55;;;;;;;4.73;4.33;;;15.70;99.90;;;;;;6227783;28;20769;-61
2022/09/13 01:56:05;;;;;;;5.37;4.87;;;15.60;99.90;;;;;;6227324;28;20492;-61
2022/09/13 01:59:15;;;;;;;5.23;4.83;;;15.60;99.90;;;;;;6227803;28;20480;-61
2022/09/13 02:02:24;;;;;;;4.80;4.40;;;15.60;99.90;;;;;;6227099;28;20503;-61
2022/09/13 02:05:33;;;;;;;6.17;4.90;;;15.60;99.90;;;;;;6227243;28;20574;-61
2022/09/13 02:08:40;;;;;;;5.10;4.60;;;15.60;99.90;;;;;;6227117;28;20484;-61
2022/09/13 02:11:46;;;;;;;4.67;4.27;;;15.50;99.90;;;;;;6226860;28;20999;-61
2022/09/13 02:14:56;;;;;;;5.90;4.33;;;15.50;99.90;;;;;;6226702;28;20506;-60
2022/09/13 02:18:09;;;;;;;4.90;4.50;;;15.50;99.90;;;;;;6226940;28;20480;-60
2022/09/13 02:21:20;;;;;;;4.40;4.10;;;15.50;99.90;;;;;;6221917;28;20587;-60
2022/09/13 02:24:26;;;;;;;6.10;4.67;;;15.40;99.90;;;;;;6220442;28;20477;-60
2022/09/13 02:27:33;;;;;;;5.10;4.53;;;15.40;99.90;;;;;;6208318;28;20510;-61
2022/09/13 02:30:40;;;;;;;5.40;5.00;;;15.30;99.90;;;;;;6209434;28;20481;-61
2022/09/13 02:33:48;;;;;;;6.90;4.80;;;15.30;99.90;;;;;;6202221;28;20504;-61
2022/09/13 02:36:56;;;;;;;6.93;4.60;;;15.20;99.90;;;;;;6202213;28;20480;-61
2022/09/13 02:40:04;;;;;;;10.20;5.73;;;15.30;99.90;;;;;;6201786;28;20476;-60
2022/09/13 02:43:12;;;;;;;5.90;5.27;;;15.30;99.90;;;;;;6201984;28;20499;-61
2022/09/13 02:46:25;;;;;;;5.27;4.77;;;15.30;99.90;;;;;;6202124;28;20477;-61
2022/09/13 02:49:34;;;;;;;5.17;4.77;;;15.20;99.90;;;;;;6201807;28;20566;-61
2022/09/13 02:52:46;;;;;;;5.40;4.90;;;15.30;99.90;;;;;;6201300;28;20496;-61
2022/09/13 02:55:57;;;;;;;4.63;4.07;;;15.20;99.90;;;;;;6201617;28;20539;-61
2022/09/13 02:59:05;;;;;;;5.40;4.80;;;15.20;99.90;;;;;;6201607;28;20527;-61
2022/09/13 03:02:13;;;;;;;4.93;4.43;;;15.20;99.90;;;;;;6201544;28;20826;-61
2022/09/13 03:05:17;;;;;;;5.47;4.80;;;15.20;99.90;;;;;;6201372;28;20551;-61
2022/09/13 03:08:23;;;;;;;6.57;4.57;;;15.10;99.90;;;;;;6201772;28;21035;-61
2022/09/13 03:11:38;;;;;;;6.30;5.23;;;15.10;99.90;;;;;;6201449;28;20477;-61
2022/09/13 03:14:49;;;;;;;5.03;4.60;;;15.10;99.90;;;;;;6201701;28;20512;-61
2022/09/13 03:17:58;;;;;;;6.00;4.83;;;15.10;99.90;;;;;;6201583;28;20577;-61
2022/09/13 03:21:10;;;;;;;5.27;4.77;;;15.10;99.90;;;;;;6201271;28;20508;-61
2022/09/13 03:24:23;;;;;;;5.40;4.70;;;15.00;99.90;;;;;;6200999;28;20477;-61
2022/09/13 03:27:34;;;;;;;4.63;4.20;;;15.00;99.90;;;;;;6201225;28;20480;-61
2022/09/13 03:30:41;;;;;;;5.07;4.63;;;15.00;99.90;;;;;;6201267;28;20465;-61
2022/09/13 03:33:52;;;;;;;8.73;4.80;;;15.00;99.90;;;;;;6201421;28;20489;-61
2022/09/13 03:37:00;;;;;;;5.30;4.43;;;15.00;99.90;;;;;;6201400;28;20532;-61
2022/09/13 03:40:10;;;;;;;5.13;4.50;;;14.90;99.90;;;;;;6200874;28;20477;-61
2022/09/13 03:43:16;;;;;;;5.73;5.23;;;14.90;99.90;;;;;;6200862;28;20539;-61
2022/09/13 03:46:26;;;;;;;4.70;4.40;;;14.80;99.90;;;;;;6196739;28;20543;-61
2022/09/13 03:49:31;;;;;;;9.73;4.43;;;14.80;99.90;;;;;;6200959;28;20539;-61
2022/09/13 03:52:35;;;;;;;4.53;4.13;;;14.80;99.90;;;;;;6200979;28;20808;-61
2022/09/13 03:55:42;;;;;;;4.60;4.10;;;14.80;99.90;;;;;;6200603;28;20535;-61
2022/09/13 03:58:47;;;;;;;4.00;3.70;;;14.80;99.90;;;;;;6201431;28;20483;-61
2022/09/13 04:01:51;;;;;;;5.50;5.00;;;14.70;99.90;;;;;;6201270;28;20579;-61
2022/09/13 04:04:55;;;;;;;5.87;4.40;;;14.70;99.90;;;;;;6202164;28;20476;-60
2022/09/13 04:07:58;;;;;;;4.33;3.90;;;14.70;99.90;;;;;;6205637;28;20844;-60
2022/09/13 04:11:02;;;;;;;4.67;4.17;;;14.70;99.90;;;;;;6205575;28;20831;-61
2022/09/13 04:14:05;;;;;;;6.60;5.13;;;14.70;99.90;;;;;;6205196;28;20484;-61
2022/09/13 04:17:09;;;;;;;4.93;4.47;;;14.70;99.90;;;;;;6205833;28;20473;-60
2022/09/13 04:20:12;;;;;;;5.27;4.87;;;14.60;99.90;;;;;;6205604;28;20476;-60
2022/09/13 04:23:15;;;;;;;5.57;4.80;;;14.60;99.90;;;;;;6205164;28;20512;-60
2022/09/13 04:26:20;;;;;;;5.10;4.70;;;14.60;99.90;;;;;;6205767;28;20508;-60
2022/09/13 04:29:25;;;;;;;6.80;4.90;;;14.60;99.90;;;;;;6205310;28;20473;-60
2022/09/13 04:32:28;;;;;;;6.17;5.57;;;14.60;99.90;;;;;;6205366;28;20567;-61
2022/09/13 04:35:31;;;;;;;6.60;6.00;;;14.60;99.90;;;;;;6205262;28;20829;-61
2022/09/13 04:38:36;;;;;;;6.23;4.60;;;14.60;99.90;;;;;;6205059;28;20488;-61
2022/09/13 04:41:40;;;;;;;5.53;5.03;;;14.60;99.90;;;;;;6204947;28;20485;-61
2022/09/13 04:44:43;;;;;;;5.47;4.83;;;14.50;99.90;;;;;;6205294;28;20477;-61
2022/09/13 04:47:51;;;;;;;5.07;4.57;;;14.50;99.90;;;;;;6204869;28;20488;-61
2022/09/13 04:51:00;;;;;;;4.73;4.20;;;14.60;99.90;;;;;;6204584;28;21019;-61
2022/09/13 04:54:04;;;;;;;5.53;5.00;;;14.60;99.90;;;;;;6204406;28;20488;-61
2022/09/13 04:57:08;;;;;;;7.37;4.80;;;14.60;99.90;;;;;;6205169;28;20481;-62
2022/09/13 05:00:12;;;;;;;5.30;4.80;;;14.60;99.90;;;;;;6209977;28;20473;-61
2022/09/13 05:03:15;;;;;;;5.40;4.90;;;14.60;99.90;;;;;;6206007;28;20484;-62
2022/09/13 05:06:18;;;;;;;6.07;5.47;;;14.60;99.90;;;;;;6205347;28;20487;-60
2022/09/13 05:09:21;;;;;;;5.60;5.10;;;14.60;99.90;;;;;;6205048;28;20476;-60
2022/09/13 05:12:26;;;;;;;6.10;4.50;;;14.60;99.90;;;;;;6204694;28;21036;-60
2022/09/13 05:15:29;;;;;;;5.80;4.47;;;14.70;99.90;;;;;;6203760;28;20473;-60
2022/09/13 05:18:34;;;;;;;5.67;4.70;;;14.60;99.90;;;;;;6204064;28;20508;-60
2022/09/13 05:21:37;;;;;;;5.70;5.07;;;14.70;99.90;;;;;;6210316;28;20489;-61
2022/09/13 05:24:41;;;;;;;9.23;5.83;;;14.70;99.90;;;;;;6203813;28;20777;-61
2022/09/13 05:27:46;;;;;;;10.63;5.43;;;14.70;99.90;;;;;;6206300;28;20492;-60
2022/09/13 05:30:57;;;;;;;5.03;4.60;;;14.70;99.90;;;;;;6203815;28;20515;-61
2022/09/13 05:34:02;;;;;;;6.03;5.03;;;14.70;99.90;;;;;;6203694;28;20539;-61
2022/09/13 05:37:05;;;;;;;4.73;4.40;;;14.70;99.90;;;;;;6203480;28;20821;-60
2022/09/13 05:40:09;;;;;;;5.60;5.00;;;14.80;99.90;;;;;;6203206;28;20543;-60
2022/09/13 05:43:16;;;;;;;5.70;5.27;;;14.80;99.90;;;;;;6203605;28;20825;-60
2022/09/13 05:46:20;;;;;;;5.27;4.80;;;14.80;99.90;;;;;;6203335;28;20480;-61
2022/09/13 05:49:24;;;;;;;6.23;5.70;;;14.90;99.90;;;;;;6203610;28;20529;-61
2022/09/13 05:52:27;;;;;;;5.50;5.00;;;15.00;99.90;;;;;;6203125;28;20562;-60
2022/09/13 05:55:30;;;;;;;7.07;5.57;;;15.10;99.90;;;;;;6203112;28;20488;-61
2022/09/13 05:58:39;;;;;;;8.70;5.30;;;15.20;99.90;;;;;;6203329;28;20553;-60
2022/09/13 06:01:42;;;;;;;6.13;5.53;;;15.30;99.90;;;;;;6203263;28;20465;-61
2022/09/13 06:04:45;;;;;;;7.87;5.50;;;15.30;99.90;;;;;;6203017;28;20464;-62
2022/09/13 06:07:49;;;;;;;6.37;4.67;;;15.40;99.90;;;;;;6202800;28;20449;-61
2022/09/13 06:10:56;;;;;;;5.63;5.13;;;15.40;99.90;;;;;;6202488;28;20444;-60
2022/09/13 06:14:01;;;;;;;5.97;5.37;;;15.60;99.90;;;;;;6203127;28;20473;-61
2022/09/13 06:17:04;;;;;;;6.60;5.83;;;15.80;99.90;;;;;;6202672;28;20538;-65
2022/09/13 06:20:09;;;;;;;5.73;5.13;;;16.00;99.90;;;;;;6202885;28;20484;-61
2022/09/13 06:23:12;;;;;;;5.80;4.87;;;16.30;99.90;;;;;;6203995;28;21024;-63
2022/09/13 06:26:18;;;;;;;6.40;4.93;;;16.90;99.90;;;;;;6203627;28;20836;-63
2022/09/13 06:29:22;;;;;;;6.20;4.57;;;18.60;99.90;;;;;;6201164;28;20480;-64
2022/09/13 06:32:25;;;;;;;4.20;3.90;;;20.80;99.90;;;;;;6208088;28;20282;-64
2022/09/13 06:35:28;;;;;;;4.27;3.40;;;22.70;97.70;;;;;;6209713;28;20237;-63
2022/09/13 06:38:32;;;;;;;5.67;5.10;;;24.30;92.90;;;;;;6213475;28;20229;-63
2022/09/13 06:41:35;;;;;;;4.37;3.97;;;25.40;88.30;;;;;;6213759;28;20570;-63
2022/09/13 06:44:39;;;;;;;4.97;4.50;;;26.20;80.80;;;;;;6215038;28;20577;-63
2022/09/13 06:47:42;;;;;;;5.23;4.73;;;26.90;75.90;;;;;;6209827;28;20579;-63
2022/09/13 06:50:45;;;;;;;6.13;4.40;;;27.50;71.90;;;;;;6213854;28;20235;-63
2022/09/13 06:53:50;;;;;;;5.50;4.90;;;27.90;67.70;;;;;;6224536;28;20320;-63
2022/09/13 06:56:53;;;;;;;5.83;5.03;;;28.80;64.80;;;;;;6221258;28;20661;-63
2022/09/13 06:59:58;;;;;;;4.50;4.10;;;30.10;59.80;;;;;;6226172;28;20291;-63
2022/09/13 07:03:01;;;;;;;5.03;4.10;;;31.10;55.80;;;;;;6225749;28;20224;-63
2022/09/13 07:06:12;;;;;;;11.27;5.72;;;31.90;52.40;;;;;;6219577;28;20232;-63
2022/09/13 07:09:17;;;;;;;4.65;4.15;;;32.50;49.60;;;;;;6201723;28;20295;-63
2022/09/13 07:12:20;;;;;;;7.28;5.35;;;33.10;48.10;;;;;;6201361;28;20221;-63
2022/09/13 07:15:25;;;;;;;7.28;4.43;;;33.70;45.90;;;;;;6201566;28;20229;-63
2022/09/13 07:18:28;;;;;;;5.50;5.10;;;33.90;44.40;;;;;;6201206;28;20690;-63
2022/09/13 07:21:33;;;;;;;8.27;7.47;;;34.20;43.50;;;;;;6201644;28;20270;-64
2022/09/13 07:24:36;;;;;;;4.72;4.30;;;34.90;42.10;;;;;;6201142;28;20598;-64
2022/09/13 07:27:39;;;;;;;7.57;4.43;;;36.10;40.50;;;;;;6201260;28;20244;-63
2022/09/13 07:30:43;;;;;;;4.70;4.25;;;37.30;38.00;;;;;;6201293;28;20239;-63
2022/09/13 07:33:47;;;;;;;5.25;4.75;;;38.20;36.00;;;;;;6200032;28;20256;-63
2022/09/13 07:36:51;;;;;;;6.05;5.45;;;39.10;34.20;;;;;;6206475;28;20288;-63
2022/09/13 07:39:54;;;;;;;5.63;5.22;;;39.70;32.60;;;;;;6221164;28;20228;-64
2022/09/13 07:42:57;;;;;;;4.57;4.28;;;39.90;31.30;;;;;;6223999;28;20232;-63
2022/09/13 07:46:03;;;;;;;4.10;3.70;;;40.20;30.50;;;;;;6212241;28;20229;-64
2022/09/13 07:49:07;;;;;;;6.90;4.65;;;41.20;30.00;;;;;;6207529;28;20240;-64
2022/09/13 07:52:10;;;;;;;4.07;3.78;;;41.50;29.20;;;;;;6212284;28;20244;-64
2022/09/13 07:55:14;;;;;;;3.60;3.30;;;42.30;29.00;;;;;;6211304;28;20256;-64
2022/09/13 07:58:17;;;;;;;8.93;7.80;;;43.30;27.90;;;;;;6209345;28;20221;-65
2022/09/13 08:01:23;;;;;;;5.38;5.00;;;43.90;26.90;;;;;;6200673;28;20233;-65
2022/09/13 08:04:26;;;;;;;7.90;6.95;;;44.60;26.00;;;;;;6214726;28;20271;-65
2022/09/13 08:07:31;;;;;;;10.05;9.20;;;45.00;25.40;;;;;;6225030;28;20330;-65
2022/09/13 08:10:35;;;;;;;7.90;6.90;;;45.40;25.10;;;;;;6224909;28;20283;-64
2022/09/13 08:13:38;;;;;;;4.40;4.00;;;45.60;25.20;;;;;;6225151;28;20221;-64
2022/09/13 08:16:43;;;;;;;3.97;3.67;;;45.70;24.10;;;;;;6224669;28;20217;-64
2022/09/13 08:19:46;;;;;;;4.03;3.72;;;46.20;24.10;;;;;;6225231;28;20206;-64
2022/09/13 08:22:49;;;;;;;12.25;9.45;;;46.70;23.70;;;;;;6225027;28;20307;-63
2022/09/13 08:25:52;;;;;;;5.78;5.35;;;47.00;23.20;;;;;;6203042;28;20229;-64
2022/09/13 08:28:57;;;;;;;4.70;4.20;;;46.90;23.20;;;;;;6207358;28;20216;-63
2022/09/13 08:32:01;;;;;;;3.60;3.38;;;46.30;23.20;;;;;;6211140;28;20224;-63
2022/09/13 08:35:05;;;;;;;3.67;3.33;;;46.70;23.00;;;;;;6210861;28;20236;-64
2022/09/13 08:38:08;;;;;;;4.13;3.83;;;45.80;23.20;;;;;;6210563;28;20232;-64
2022/09/13 08:41:31;;;;;;;4.43;4.13;;;45.70;23.60;;;;;;6211992;28;20260;-64
2022/09/13 08:44:37;;;;;;;4.03;3.63;;;45.00;23.80;;;;;;6211477;28;20230;-64
2022/09/13 08:47:46;;;;;;;3.38;3.17;;;46.40;23.50;;;;;;6210704;28;20232;-64
2022/09/13 08:50:54;;;;;;;6.13;5.55;;;48.00;22.30;;;;;;6219150;28;20992;-67
2022/09/13 08:53:58;;;;;;;3.47;3.17;;;48.80;21.50;;;;;;6203810;28;20297;-66
2022/09/13 08:57:09;;;;;;;3.55;3.35;;;49.00;21.50;;;;;;6204402;28;20238;-66
2022/09/13 09:00:18;;;;;;;7.65;7.05;;;49.40;21.00;;;;;;6204584;28;20233;-66
2022/09/13 09:03:31;;;;;;;3.65;3.38;;;50.00;20.80;;;;;;6204295;28;20261;-64
2022/09/13 09:06:36;;;;;;;3.67;3.38;;;50.20;20.30;;;;;;6204048;28;20236;-64
2022/09/13 09:09:45;;;;;;;7.00;6.55;;;50.60;20.20;;;;;;6203748;28;20225;-64
2022/09/13 09:12:53;;;;;;;10.73;9.98;;;50.60;20.00;;;;;;6203954;28;20677;-66
2022/09/13 09:16:00;;;;;;;4.85;4.45;;;50.60;19.60;;;;;;6203906;28;20233;-66
2022/09/13 09:19:13;;;;;;;3.00;2.80;;;50.00;20.00;;;;;;6203979;28;20252;-66
2022/09/13 09:22:20;;;;;;;3.40;3.20;;;50.40;19.90;;;;;;6214739;28;20222;-67
2022/09/13 09:25:25;;;;;;;7.35;6.85;;;50.80;19.80;;;;;;6213845;28;20230;-67
2022/09/13 09:28:30;;;;;;;3.92;3.70;;;50.60;19.70;;;;;;6214806;28;20236;-65
2022/09/13 09:31:42;;;;;;;4.07;3.78;;;50.80;19.50;;;;;;6209643;28;20220;-67
2022/09/13 09:34:55;;;;;;;6.65;6.15;;;50.90;19.40;;;;;;6216435;28;20663;-67
2022/09/13 09:38:35;;;;;;;5.97;3.92;;;50.90;19.30;;;;;;6215436;28;20245;-64
2022/09/13 09:41:39;;;;;;;4.00;3.70;;;50.30;19.60;;;;;;6210516;28;20701;-65
2022/09/13 09:44:45;;;;;;;5.53;5.13;;;51.10;19.20;;;;;;6215121;28;20615;-65
2022/09/13 09:47:51;;;;;;;4.45;4.15;;;51.40;19.00;;;;;;6216199;28;20259;-66
2022/09/13 09:50:58;;;;;;;3.50;3.20;;;50.40;19.20;;;;;;6212796;28;20232;-66
2022/09/13 09:54:05;;;;;;;7.03;4.28;;;49.00;19.80;;;;;;6215080;28;20235;-66
2022/09/13 09:57:08;;;;;;;4.13;3.53;;;49.10;20.30;;;;;;6206130;28;20603;-66
2022/09/13 10:00:13;;;;;;;4.75;4.07;;;48.70;20.40;;;;;;6212569;28;20220;-65
2022/09/13 10:03:19;;;;;;;6.07;4.45;;;46.90;21.30;;;;;;6212737;28;20239;-66
2022/09/13 10:06:27;;;;;;;7.05;5.57;;;46.20;22.10;;;;;;6208500;28;20660;-65
2022/09/13 10:09:30;;;;;;;17.60;7.00;;;45.40;22.60;;;;;;6205543;28;20237;-65
2022/09/13 10:12:36;;;;;;;10.27;7.25;;;43.70;23.60;;;;;;6215315;28;20596;-65
2022/09/13 10:15:53;;;;;;;13.73;4.72;;;42.20;24.80;;;;;;6202177;28;20233;-65
2022/09/13 10:19:24;;;;;;;4.80;4.40;;;40.60;25.70;;;;;;6202513;28;20226;-66
2022/09/13 10:22:30;;;;;;;4.78;4.43;;;38.30;27.80;;;;;;6219850;28;20251;-66
2022/09/13 10:25:35;;;;;;;4.72;4.32;;;37.50;28.70;;;;;;6226327;28;20236;-66
2022/09/13 10:28:45;;;;;;;4.60;4.20;;;36.60;29.70;;;;;;6208234;28;20217;-66
2022/09/13 10:31:52;;;;;;;11.07;9.98;;;35.50;31.40;;;;;;6226584;28;20201;-66
2022/09/13 10:34:59;;;;;;;16.67;15.27;;;34.80;32.00;;;;;;6226702;28;20224;-66
2022/09/13 10:38:03;;;;;;;8.40;7.70;;;33.90;33.40;;;;;;6225813;28;20565;-66
2022/09/13 10:41:10;;;;;;;5.93;5.43;;;33.00;34.60;;;;;;6224379;28;20669;-65
2022/09/13 10:44:26;;;;;;;5.15;4.75;;;32.30;36.00;;;;;;6200971;28;20292;-65
2022/09/13 10:47:33;;;;;;;4.72;4.43;;;31.90;37.70;;;;;;6200719;28;20229;-66
2022/09/13 10:50:37;;;;;;;6.00;5.50;;;31.10;37.90;;;;;;6202580;28;20240;-66
2022/09/13 10:53:43;;;;;;;7.30;3.78;;;30.80;38.50;;;;;;6202547;28;20229;-66
2022/09/13 10:56:47;;;;;;;22.00;20.13;;;30.90;38.90;;;;;;6221352;28;20234;-65
2022/09/13 10:59:53;;;;;;;4.85;4.40;;;30.50;39.20;;;;;;6218041;28;20228;-65
2022/09/13 11:03:22;;;;;;;4.47;4.13;;;30.30;39.80;;;;;;6209503;28;20224;-65
2022/09/13 11:06:30;;;;;;;5.53;4.63;;;30.30;40.10;;;;;;6211592;28;20264;-65
2022/09/13 11:09:41;;;;;;;6.22;5.57;;;30.30;40.60;;;;;;6211790;28;20267;-65
2022/09/13 11:12:48;;;;;;;4.68;4.28;;;30.30;41.00;;;;;;6203268;28;20233;-65
2022/09/13 11:16:03;;;;;;;4.65;4.25;;;30.30;41.50;;;;;;6219476;28;20247;-65
2022/09/13 11:19:36;;;;;;;4.60;4.20;;;29.90;40.90;;;;;;6225153;28;20237;-65
2022/09/13 11:22:55;;;;;;;3.50;3.20;;;29.70;41.20;;;;;;6218543;28;20208;-65
2022/09/13 11:26:12;;;;;;;5.35;3.85;;;29.80;41.50;;;;;;6200557;28;20535;-64
2022/09/13 11:29:39;;;;;;;5.40;4.47;;;30.20;42.00;;;;;;6200742;28;20233;-63
2022/09/13 11:33:19;;;;;;;4.72;3.45;;;30.50;41.40;;;;;;6203523;28;21490;-63
2022/09/13 11:36:49;;;;;;;3.85;3.33;;;30.60;41.10;;;;;;6151931;28;20702;-63
2022/09/13 11:40:02;;;;;;;5.13;4.03;;;30.60;40.50;;;;;;6200491;28;20292;-63
2022/09/13 11:43:22;;;;;;;4.60;4.20;;;30.70;40.30;;;;;;6193298;28;20225;-64
2022/09/13 11:46:35;;;;;;;4.20;3.90;;;30.60;40.70;;;;;;6200962;28;20667;-64
2022/09/13 11:50:01;;;;;;;5.25;4.10;;;31.00;39.90;;;;;;6198489;28;20228;-64
2022/09/13 11:53:21;;;;;;;4.30;3.58;;;31.20;39.50;;;;;;6192337;28;20901;-64
2022/09/13 11:56:34;;;;;;;4.25;3.85;;;31.20;39.40;;;;;;6189422;28;20243;-65
2022/09/13 11:59:43;;;;;;;4.72;4.32;;;30.90;39.20;;;;;;6200624;28;20232;-64
2022/09/13 12:02:56;;;;;;;4.43;4.00;;;30.80;39.80;;;;;;6200309;28;20523;-64
2022/09/13 12:06:02;;;;;;;4.03;3.60;;;30.80;40.50;;;;;;6200027;28;20243;-64
2022/09/13 12:09:12;;;;;;;4.68;4.28;;;30.80;40.50;;;;;;6200259;28;20241;-64
2022/09/13 12:12:16;;;;;;;3.45;3.10;;;30.20;41.20;;;;;;6200783;28;20233;-65
2022/09/13 12:15:27;;;;;;;4.13;3.63;;;29.90;41.80;;;;;;6202164;28;20233;-65
2022/09/13 12:18:34;;;;;;;4.10;3.67;;;29.80;42.20;;;;;;6200529;28;20827;-64
2022/09/13 12:21:40;;;;;;;3.88;3.40;;;30.00;41.70;;;;;;6200439;28;20236;-64
2022/09/13 12:24:49;;;;;;;4.40;3.87;;;29.90;41.30;;;;;;6200341;28;20229;-63
2022/09/13 12:28:04;;;;;;;4.30;3.83;;;29.80;41.40;;;;;;6204491;28;20241;-64
2022/09/13 12:31:14;;;;;;;4.60;3.60;;;29.30;41.90;;;;;;6204905;28;20244;-65
2022/09/13 12:34:22;;;;;;;4.00;3.70;;;29.60;41.70;;;;;;6212003;28;20549;-63
2022/09/13 12:37:53;;;;;;;4.13;3.70;;;29.90;41.60;;;;;;6229853;28;20239;-63
2022/09/13 12:41:18;;;;;;;4.38;3.58;;;30.20;41.60;;;;;;6207814;28;20239;-62
2022/09/13 12:44:41;;;;;;;3.85;3.45;;;30.10;41.60;;;;;;6215010;28;20232;-62
2022/09/13 12:48:04;;;;;;;4.20;3.80;;;30.10;41.80;;;;;;6217967;28;20508;-62
2022/09/13 12:51:15;;;;;;;4.33;3.40;;;29.80;41.60;;;;;;6215978;28;20283;-62
2022/09/13 12:55:12;;;;;;;3.73;3.43;;;29.80;42.20;;;;;;6218594;28;20244;-62
2022/09/13 12:58:54;;;;;;;4.10;3.80;;;30.00;41.80;;;;;;6208734;28;20308;-63
2022/09/13 13:01:59;;;;;;;3.93;3.63;;;30.00;41.50;;;;;;6179783;28;20325;-63
2022/09/13 13:05:14;;;;;;;4.30;3.08;;;30.00;41.00;;;;;;6181301;28;20316;-63
2022/09/13 13:08:28;;;;;;;4.65;3.70;;;30.20;40.70;;;;;;6183269;28;20238;-63
2022/09/13 13:11:44;;;;;;;3.72;3.42;;;30.00;41.00;;;;;;6182132;28;20284;-63
2022/09/13 13:14:52;;;;;;;4.80;3.58;;;30.10;41.50;;;;;;6182536;28;20253;-63
2022/09/13 13:17:56;;;;;;;4.10;3.70;;;30.10;41.90;;;;;;6181277;28;20233;-64
2022/09/13 13:21:30;;;;;;;3.40;3.10;;;30.10;41.30;;;;;;6181555;28;20233;-65
2022/09/13 13:24:47;;;;;;;3.58;3.20;;;30.10;41.20;;;;;;6206651;28;20237;-65
2022/09/13 13:27:53;;;;;;;3.60;3.30;;;29.90;41.30;;;;;;6226428;28;20259;-63
2022/09/13 13:30:57;;;;;;;3.50;3.20;;;29.80;41.60;;;;;;6227296;28;20243;-62
2022/09/13 13:34:03;;;;;;;3.00;2.80;;;29.90;42.40;;;;;;6227017;28;20244;-62
2022/09/13 13:40:35;;;;;;;3.83;3.17;;;29.70;42.10;;;;;;6296398;27;20547;-64
2022/09/13 13:43:38;;;;;;;3.83;3.53;;;29.00;43.10;;;;;;6248331;28;20227;-63
2022/09/13 13:46:42;;;;;;;5.10;3.27;;;28.60;43.80;;;;;;6246452;28;20208;-63
2022/09/13 13:49:51;;;;;;;4.10;3.40;;;28.40;44.50;;;;;;6246339;28;20555;-64
2022/09/13 13:53:04;;;;;;;3.60;3.30;;;28.30;45.10;;;;;;6248119;28;20607;-65
2022/09/13 13:56:20;;;;;;;11.90;4.60;;;28.20;45.10;;;;;;6222090;28;20232;-63
2022/09/13 13:59:27;;;;;;;5.30;3.20;;;28.00;45.60;;;;;;6228589;28;20234;-63
2022/09/13 14:02:35;;;;;;;3.30;3.10;;;28.10;45.70;;;;;;6270524;28;20720;-63
2022/09/13 14:05:46;;;;;;;4.30;3.30;;;28.10;45.30;;;;;;6270374;28;20691;-63
2022/09/13 14:09:08;;;;;;;3.20;2.80;;;28.30;45.40;;;;;;6270464;28;20589;-63
2022/09/13 14:12:25;;;;;;;4.23;3.83;;;28.30;45.30;;;;;;6270605;28;20238;-63
2022/09/13 14:15:41;;;;;;;3.47;3.17;;;28.30;45.60;;;;;;6270434;28;20246;-63
2022/09/13 14:19:05;;;;;;;4.93;3.90;;;28.40;46.00;;;;;;6270297;28;20546;-64
2022/09/13 14:22:15;;;;;;;4.70;3.00;;;28.10;46.30;;;;;;6270340;28;20294;-63
2022/09/13 14:25:24;;;;;;;4.10;3.50;;;27.90;46.80;;;;;;6261280;28;20582;-63
2022/09/13 14:28:29;;;;;;;3.53;3.23;;;27.80;47.00;;;;;;6270150;28;20227;-63
2022/09/13 14:31:32;;;;;;;3.43;3.20;;;27.80;47.50;;;;;;6269967;28;20301;-64
2022/09/13 14:34:38;;;;;;;3.73;3.37;;;27.50;48.00;;;;;;6269934;28;20246;-63
2022/09/13 14:37:41;;;;;;;4.47;3.30;;;27.40;48.50;;;;;;6245686;28;20227;-63
2022/09/13 14:40:48;;;;;;;3.60;3.30;;;27.30;48.80;;;;;;6247028;28;20644;-64
2022/09/13 14:43:53;;;;;;;4.07;3.77;;;27.20;49.00;;;;;;6244446;28;20235;-64
2022/09/13 14:47:03;;;;;;;3.67;3.37;;;26.90;49.50;;;;;;6244646;28;20213;-64
2022/09/13 14:50:12;;;;;;;4.83;3.63;;;26.90;50.20;;;;;;6238704;28;20331;-64
2022/09/13 14:53:18;;;;;;;4.60;4.20;;;26.70;50.10;;;;;;6228175;28;20703;-64
2022/09/13 14:56:31;;;;;;;3.43;3.23;;;26.70;50.50;;;;;;6228201;28;20228;-64
2022/09/13 14:59:43;;;;;;;4.10;3.47;;;26.40;51.70;;;;;;6233271;28;20239;-64
2022/09/13 15:02:50;;;;;;;4.60;3.60;;;26.30;52.10;;;;;;6253199;28;20277;-64
2022/09/13 15:05:56;;;;;;;4.00;3.70;;;26.30;52.10;;;;;;6252639;28;20240;-65
2022/09/13 15:09:13;;;;;;;4.10;3.70;;;26.30;52.10;;;;;;6252761;28;20227;-65
2022/09/13 15:12:25;;;;;;;4.20;3.90;;;26.30;52.20;;;;;;6252083;28;20232;-65
2022/09/13 15:15:36;;;;;;;3.50;3.20;;;26.30;52.20;;;;;;6251405;28;20246;-65
2022/09/13 15:18:39;;;;;;;5.30;3.60;;;26.30;52.90;;;;;;6252771;28;20289;-68
2022/09/13 15:21:42;;;;;;;3.63;3.33;;;26.30;52.80;;;;;;6253164;28;20240;-68
2022/09/13 15:24:48;;;;;;;5.23;4.20;;;26.30;52.90;;;;;;6252490;28;20289;-65
2022/09/13 15:27:53;;;;;;;4.27;3.87;;;26.20;53.10;;;;;;6247699;28;20711;-64
2022/09/13 15:30:59;;;;;;;3.83;3.53;;;26.20;53.40;;;;;;6252324;28;20293;-64
2022/09/13 15:34:12;;;;;;;3.67;3.10;;;26.30;53.40;;;;;;6252557;28;20240;-64
2022/09/13 15:37:15;;;;;;;3.50;3.17;;;26.30;53.40;;;;;;6252495;28;20232;-64
2022/09/13 15:40:21;;;;;;;5.13;4.20;;;26.30;53.90;;;;;;6248401;28;20311;-64
2022/09/13 15:43:24;;;;;;;4.33;3.93;;;26.30;54.30;;;;;;6227556;28;20268;-64
2022/09/13 15:46:29;;;;;;;7.90;4.40;;;26.20;54.50;;;;;;6227919;28;20224;-64
2022/09/13 15:49:32;;;;;;;3.53;3.20;;;26.20;54.60;;;;;;6226953;28;20232;-64
2022/09/13 15:52:35;;;;;;;4.20;3.60;;;26.10;54.50;;;;;;6226186;28;20264;-64
2022/09/13 15:55:40;;;;;;;3.33;3.13;;;25.90;55.30;;;;;;6206734;28;20229;-64
2022/09/13 15:58:43;;;;;;;3.60;3.27;;;25.90;55.60;;;;;;6202960;28;20311;-65
2022/09/13 16:01:50;;;;;;;4.80;4.00;;;25.90;56.10;;;;;;6247735;28;20266;-64
2022/09/13 16:04:54;;;;;;;4.23;3.80;;;25.90;56.00;;;;;;6251411;28;20684;-64
2022/09/13 16:07:57;;;;;;;4.17;3.77;;;26.00;55.90;;;;;;6251619;28;20200;-65
2022/09/13 16:11:01;;;;;;;5.03;4.27;;;26.00;55.90;;;;;;6251500;28;20227;-65
2022/09/13 16:14:04;;;;;;;4.40;4.00;;;26.10;55.90;;;;;;6251647;28;20297;-66
2022/09/13 16:17:20;;;;;;;9.53;3.97;;;26.00;55.90;;;;;;6251160;28;20289;-65
2022/09/13 16:20:24;;;;;;;3.50;3.20;;;25.80;56.40;;;;;;6251263;28;20235;-65
2022/09/13 16:23:27;;;;;;;4.20;3.80;;;25.80;56.80;;;;;;6251067;28;20231;-65